sensor_id;sensor_type;location;lat;lon;timestamp;pressure;altitude;pressure_sealevel;temperature;humidity
10392;BME280;5242;49.244;6.774;2023-05-23T00:03:56;99532.22;;;16.08;nan
10392;BME280;5242;49.244;6.774;2023-05-23T00:11:48;99525.94;;;15.93;nan
10392;BME280;5242;49.244;6.774;2023-05-23T00:19:40;99517.28;;;15.80;nan
10392;BME280;5242;49.244;6.774;2023-05-23T00:27:32;99512.56;;;15.77;nan
10392;BME280;5242;49.244;6.774;2023-05-23T00:35:23;99515.59;;;15.58;nan
10392;BME280;5242;49.244;6.774;2023-05-23T00:43:15;99514.75;;;15.47;nan
10392;BME280;5242;49.244;6.774;2023-05-23T00:51:07;99516.69;;;15.35;nan
10392;BME280;5242;49.244;6.774;2023-05-23T00:58:59;99537.06;;;15.31;nan
10392;BME280;5242;49.244;6.774;2023-05-23T01:06:53;99538.19;;;15.26;nan
10392;BME280;5242;49.244;6.774;2023-05-23T01:15:07;99523.66;;;15.11;nan
10392;BME280;5242;49.244;6.774;2023-05-23T01:23:12;99532.50;;;14.87;nan
10392;BME280;5242;49.244;6.774;2023-05-23T01:31:15;99531.63;;;14.72;nan
10392;BME280;5242;49.244;6.774;2023-05-23T01:39:08;99544.19;;;14.73;nan
10392;BME280;5242;49.244;6.774;2023-05-23T01:47:06;99540.56;;;14.62;nan
10392;BME280;5242;49.244;6.774;2023-05-23T01:54:59;99545.50;;;14.45;nan
10392;BME280;5242;49.244;6.774;2023-05-23T02:02:51;99544.56;;;14.27;nan
10392;BME280;5242;49.244;6.774;2023-05-23T02:10:43;99560.16;;;14.23;nan
10392;BME280;5242;49.244;6.774;2023-05-23T02:18:35;99572.81;;;14.34;nan
10392;BME280;5242;49.244;6.774;2023-05-23T02:26:29;99577.91;;;14.36;nan
10392;BME280;5242;49.244;6.774;2023-05-23T02:34:21;99574.34;;;14.32;nan
10392;BME280;5242;49.244;6.774;2023-05-23T02:42:13;99586.00;;;14.22;nan
10392;BME280;5242;49.244;6.774;2023-05-23T02:50:05;99579.59;;;14.07;nan
10392;BME280;5242;49.244;6.774;2023-05-23T02:57:57;99584.97;;;13.96;nan
10392;BME280;5242;49.244;6.774;2023-05-23T03:05:49;99578.22;;;13.90;nan
10392;BME280;5242;49.244;6.774;2023-05-23T03:13:42;99577.81;;;13.88;nan
10392;BME280;5242;49.244;6.774;2023-05-23T03:21:34;99583.22;;;13.81;nan
10392;BME280;5242;49.244;6.774;2023-05-23T03:29:26;99591.81;;;13.83;nan
10392;BME280;5242;49.244;6.774;2023-05-23T03:37:17;99584.13;;;13.92;nan
10392;BME280;5242;49.244;6.774;2023-05-23T03:45:09;99595.81;;;13.89;nan
10392;BME280;5242;49.244;6.774;2023-05-23T03:53:01;99610.41;;;13.66;nan
10392;BME280;5242;49.244;6.774;2023-05-23T04:00:53;99600.09;;;13.53;nan
10392;BME280;5242;49.244;6.774;2023-05-23T04:08:45;99609.34;;;13.44;nan
10392;BME280;5242;49.244;6.774;2023-05-23T04:16:37;99597.72;;;13.51;nan
10392;BME280;5242;49.244;6.774;2023-05-23T04:24:32;99611.91;;;13.60;nan
10392;BME280;5242;49.244;6.774;2023-05-23T04:32:24;99618.72;;;13.74;nan
10392;BME280;5242;49.244;6.774;2023-05-23T04:40:16;99625.97;;;13.92;nan
10392;BME280;5242;49.244;6.774;2023-05-23T04:48:08;99636.03;;;14.19;nan
10392;BME280;5242;49.244;6.774;2023-05-23T04:56:00;99641.81;;;14.47;nan
10392;BME280;5242;49.244;6.774;2023-05-23T05:03:53;99653.34;;;14.64;nan
10392;BME280;5242;49.244;6.774;2023-05-23T05:11:45;99657.78;;;14.79;nan
10392;BME280;5242;49.244;6.774;2023-05-23T05:19:37;99656.38;;;14.99;nan
10392;BME280;5242;49.244;6.774;2023-05-23T05:27:29;99657.72;;;15.20;nan
10392;BME280;5242;49.244;6.774;2023-05-23T05:35:21;99655.91;;;15.46;nan
10392;BME280;5242;49.244;6.774;2023-05-23T05:43:13;99675.75;;;15.83;nan
10392;BME280;5242;49.244;6.774;2023-05-23T05:51:05;99676.69;;;16.30;nan
10392;BME280;5242;49.244;6.774;2023-05-23T05:58:57;99665.00;;;16.73;nan
10392;BME280;5242;49.244;6.774;2023-05-23T06:06:49;99672.47;;;17.23;nan
10392;BME280;5242;49.244;6.774;2023-05-23T06:14:41;99670.31;;;18.02;nan
10392;BME280;5242;49.244;6.774;2023-05-23T06:22:33;99678.31;;;18.56;nan
10392;BME280;5242;49.244;6.774;2023-05-23T06:30:25;99688.31;;;18.95;nan
10392;BME280;5242;49.244;6.774;2023-05-23T06:38:17;99698.19;;;18.92;nan
10392;BME280;5242;49.244;6.774;2023-05-23T06:46:09;99700.38;;;18.56;nan
10392;BME280;5242;49.244;6.774;2023-05-23T06:54:01;99701.63;;;18.40;nan
10392;BME280;5242;49.244;6.774;2023-05-23T07:01:53;99711.78;;;18.61;nan
10392;BME280;5242;49.244;6.774;2023-05-23T07:09:45;99717.69;;;18.60;nan
10392;BME280;5242;49.244;6.774;2023-05-23T07:17:37;99726.75;;;18.60;nan
10392;BME280;5242;49.244;6.774;2023-05-23T07:25:29;99748.16;;;18.38;nan
10392;BME280;5242;49.244;6.774;2023-05-23T07:33:21;99752.16;;;18.16;nan
10392;BME280;5242;49.244;6.774;2023-05-23T07:41:13;99765.59;;;17.99;nan
10392;BME280;5242;49.244;6.774;2023-05-23T07:49:05;99771.56;;;17.69;nan
10392;BME280;5242;49.244;6.774;2023-05-23T07:56:57;99772.72;;;17.61;nan
10392;BME280;5242;49.244;6.774;2023-05-23T08:04:49;99779.00;;;17.76;nan
10392;BME280;5242;49.244;6.774;2023-05-23T08:12:41;99772.31;;;17.98;nan
10392;BME280;5242;49.244;6.774;2023-05-23T08:20:33;99773.84;;;18.98;nan
10392;BME280;5242;49.244;6.774;2023-05-23T08:28:25;99777.38;;;19.51;nan
10392;BME280;5242;49.244;6.774;2023-05-23T08:36:17;99782.03;;;19.61;nan
10392;BME280;5242;49.244;6.774;2023-05-23T08:44:09;99796.44;;;19.34;nan
10392;BME280;5242;49.244;6.774;2023-05-23T08:52:02;99801.63;;;18.59;nan
10392;BME280;5242;49.244;6.774;2023-05-23T08:59:54;99803.28;;;18.35;nan
10392;BME280;5242;49.244;6.774;2023-05-23T09:07:47;99796.16;;;19.70;nan
10392;BME280;5242;49.244;6.774;2023-05-23T09:16:04;99804.44;;;21.31;nan
10392;BME280;5242;49.244;6.774;2023-05-23T09:23:57;99808.19;;;20.29;nan
10392;BME280;5242;49.244;6.774;2023-05-23T09:31:49;99806.94;;;19.99;nan
10392;BME280;5242;49.244;6.774;2023-05-23T09:39:45;99805.84;;;20.27;nan
10392;BME280;5242;49.244;6.774;2023-05-23T09:47:37;99809.03;;;20.22;nan
10392;BME280;5242;49.244;6.774;2023-05-23T09:55:29;99806.19;;;19.95;nan
10392;BME280;5242;49.244;6.774;2023-05-23T10:03:26;99799.84;;;19.98;nan
10392;BME280;5242;49.244;6.774;2023-05-23T10:19:58;99818.78;;;20.72;nan
10392;BME280;5242;49.244;6.774;2023-05-23T10:27:54;99816.53;;;20.59;nan
10392;BME280;5242;49.244;6.774;2023-05-23T10:36:13;99823.88;;;20.73;nan
10392;BME280;5242;49.244;6.774;2023-05-23T10:44:22;99830.78;;;20.89;nan
10392;BME280;5242;49.244;6.774;2023-05-23T10:52:16;99829.34;;;20.46;nan
10392;BME280;5242;49.244;6.774;2023-05-23T11:00:15;99826.25;;;20.40;nan
10392;BME280;5242;49.244;6.774;2023-05-23T11:08:11;99825.38;;;20.09;nan
10392;BME280;5242;49.244;6.774;2023-05-23T11:24:16;99829.09;;;20.33;nan
10392;BME280;5242;49.244;6.774;2023-05-23T11:32:09;99823.47;;;21.29;nan
10392;BME280;5242;49.244;6.774;2023-05-23T11:40:30;99823.59;;;21.73;nan
10392;BME280;5242;49.244;6.774;2023-05-23T11:48:23;99812.66;;;22.09;nan
10392;BME280;5242;49.244;6.774;2023-05-23T11:56:14;99803.97;;;24.01;nan
10392;BME280;5242;49.244;6.774;2023-05-23T12:04:10;99808.97;;;24.65;nan
10392;BME280;5242;49.244;6.774;2023-05-23T12:12:04;99794.81;;;25.36;nan
10392;BME280;5242;49.244;6.774;2023-05-23T12:19:56;99807.41;;;24.05;nan
10392;BME280;5242;49.244;6.774;2023-05-23T12:27:47;99821.66;;;23.29;nan
10392;BME280;5242;49.244;6.774;2023-05-23T12:35:43;99810.75;;;22.66;nan
10392;BME280;5242;49.244;6.774;2023-05-23T12:43:39;99805.38;;;23.93;nan
10392;BME280;5242;49.244;6.774;2023-05-23T12:51:31;99821.13;;;24.42;nan
10392;BME280;5242;49.244;6.774;2023-05-23T12:59:23;99818.50;;;23.43;nan
10392;BME280;5242;49.244;6.774;2023-05-23T13:07:15;99809.78;;;22.72;nan
10392;BME280;5242;49.244;6.774;2023-05-23T13:15:07;99817.44;;;22.48;nan
10392;BME280;5242;49.244;6.774;2023-05-23T13:22:59;99821.72;;;22.53;nan
10392;BME280;5242;49.244;6.774;2023-05-23T13:30:51;99818.59;;;22.51;nan
10392;BME280;5242;49.244;6.774;2023-05-23T13:38:43;99811.63;;;22.99;nan
10392;BME280;5242;49.244;6.774;2023-05-23T13:46:35;99811.56;;;23.35;nan
10392;BME280;5242;49.244;6.774;2023-05-23T13:54:27;99815.28;;;23.12;nan
10392;BME280;5242;49.244;6.774;2023-05-23T14:02:19;99812.13;;;22.38;nan
10392;BME280;5242;49.244;6.774;2023-05-23T14:10:13;99807.31;;;22.18;nan
10392;BME280;5242;49.244;6.774;2023-05-23T14:18:05;99818.56;;;21.87;nan
10392;BME280;5242;49.244;6.774;2023-05-23T14:25:58;99809.31;;;21.74;nan
10392;BME280;5242;49.244;6.774;2023-05-23T14:33:50;99813.03;;;21.87;nan
10392;BME280;5242;49.244;6.774;2023-05-23T14:41:42;99815.59;;;21.78;nan
10392;BME280;5242;49.244;6.774;2023-05-23T14:49:34;99811.72;;;21.72;nan
10392;BME280;5242;49.244;6.774;2023-05-23T14:57:25;99808.22;;;21.44;nan
10392;BME280;5242;49.244;6.774;2023-05-23T15:05:17;99804.47;;;20.77;nan
10392;BME280;5242;49.244;6.774;2023-05-23T15:13:10;99807.34;;;20.35;nan
10392;BME280;5242;49.244;6.774;2023-05-23T15:21:02;99810.06;;;20.01;nan
10392;BME280;5242;49.244;6.774;2023-05-23T15:28:54;99817.13;;;20.06;nan
10392;BME280;5242;49.244;6.774;2023-05-23T15:36:46;99807.81;;;19.89;nan
10392;BME280;5242;49.244;6.774;2023-05-23T15:44:38;99810.31;;;19.76;nan
10392;BME280;5242;49.244;6.774;2023-05-23T15:52:30;99823.22;;;19.90;nan
10392;BME280;5242;49.244;6.774;2023-05-23T16:00:22;99822.22;;;19.69;nan
10392;BME280;5242;49.244;6.774;2023-05-23T16:08:14;99810.69;;;19.82;nan
10392;BME280;5242;49.244;6.774;2023-05-23T16:16:06;99814.94;;;19.90;nan
10392;BME280;5242;49.244;6.774;2023-05-23T16:23:58;99809.84;;;19.32;nan
10392;BME280;5242;49.244;6.774;2023-05-23T16:31:50;99808.03;;;19.11;nan
10392;BME280;5242;49.244;6.774;2023-05-23T16:39:42;99814.44;;;18.94;nan
10392;BME280;5242;49.244;6.774;2023-05-23T16:47:34;99809.00;;;18.83;nan
10392;BME280;5242;49.244;6.774;2023-05-23T16:55:26;99804.03;;;18.42;nan
10392;BME280;5242;49.244;6.774;2023-05-23T17:03:18;99802.53;;;18.20;nan
10392;BME280;5242;49.244;6.774;2023-05-23T17:11:11;99817.94;;;18.10;nan
10392;BME280;5242;49.244;6.774;2023-05-23T17:19:05;99809.31;;;17.76;nan
10392;BME280;5242;49.244;6.774;2023-05-23T17:26:58;99827.03;;;17.57;nan
10392;BME280;5242;49.244;6.774;2023-05-23T17:34:50;99823.88;;;17.33;nan
10392;BME280;5242;49.244;6.774;2023-05-23T17:42:42;99827.78;;;17.22;nan
10392;BME280;5242;49.244;6.774;2023-05-23T17:50:34;99818.34;;;17.15;nan
10392;BME280;5242;49.244;6.774;2023-05-23T17:58:26;99823.88;;;17.15;nan
10392;BME280;5242;49.244;6.774;2023-05-23T18:06:18;99830.91;;;17.06;nan
10392;BME280;5242;49.244;6.774;2023-05-23T18:14:10;99831.69;;;16.95;nan
10392;BME280;5242;49.244;6.774;2023-05-23T18:22:02;99831.63;;;16.78;nan
10392;BME280;5242;49.244;6.774;2023-05-23T18:29:54;99851.97;;;16.62;nan
10392;BME280;5242;49.244;6.774;2023-05-23T18:37:46;99846.44;;;16.51;nan
10392;BME280;5242;49.244;6.774;2023-05-23T18:45:38;99860.38;;;16.18;nan
10392;BME280;5242;49.244;6.774;2023-05-23T18:53:31;99862.91;;;15.85;nan
10392;BME280;5242;49.244;6.774;2023-05-23T19:01:23;99867.75;;;15.62;nan
10392;BME280;5242;49.244;6.774;2023-05-23T19:09:15;99880.19;;;15.49;nan
10392;BME280;5242;49.244;6.774;2023-05-23T19:17:07;99890.59;;;15.29;nan
10392;BME280;5242;49.244;6.774;2023-05-23T19:25:00;99902.56;;;15.10;nan
10392;BME280;5242;49.244;6.774;2023-05-23T19:32:46;99907.78;;;14.88;nan
10392;BME280;5242;49.244;6.774;2023-05-23T19:40:38;99924.38;;;14.69;nan
10392;BME280;5242;49.244;6.774;2023-05-23T19:48:30;99929.22;;;14.52;nan
10392;BME280;5242;49.244;6.774;2023-05-23T19:56:22;99937.78;;;14.47;nan
10392;BME280;5242;49.244;6.774;2023-05-23T20:04:15;99948.56;;;14.36;nan
10392;BME280;5242;49.244;6.774;2023-05-23T20:12:07;99954.63;;;14.23;nan
10392;BME280;5242;49.244;6.774;2023-05-23T20:19:59;69656.28;;;-145.40;100.00
10392;BME280;5242;49.244;6.774;2023-05-23T20:35:45;99974.78;;;13.88;nan
10392;BME280;5242;49.244;6.774;2023-05-23T20:43:39;99992.09;;;13.73;nan
10392;BME280;5242;49.244;6.774;2023-05-23T20:51:33;99990.06;;;13.46;nan
10392;BME280;5242;49.244;6.774;2023-05-23T20:59:26;100001.91;;;13.15;nan
10392;BME280;5242;49.244;6.774;2023-05-23T21:07:21;100001.66;;;12.85;nan
10392;BME280;5242;49.244;6.774;2023-05-23T21:15:13;100009.22;;;12.56;nan
10392;BME280;5242;49.244;6.774;2023-05-23T21:23:04;100009.53;;;12.35;nan
10392;BME280;5242;49.244;6.774;2023-05-23T21:30:57;100022.63;;;12.14;nan
10392;BME280;5242;49.244;6.774;2023-05-23T21:38:49;100022.03;;;12.05;nan
10392;BME280;5242;49.244;6.774;2023-05-23T21:46:41;100035.03;;;11.95;nan
10392;BME280;5242;49.244;6.774;2023-05-23T21:54:34;100026.81;;;11.80;nan
10392;BME280;5242;49.244;6.774;2023-05-23T22:02:26;100020.63;;;11.67;nan
10392;BME280;5242;49.244;6.774;2023-05-23T22:10:18;100015.59;;;11.53;nan
10392;BME280;5242;49.244;6.774;2023-05-23T22:18:10;100021.09;;;11.41;nan
10392;BME280;5242;49.244;6.774;2023-05-23T22:26:04;100032.13;;;11.32;nan
10392;BME280;5242;49.244;6.774;2023-05-23T22:33:56;100051.22;;;11.32;nan
10392;BME280;5242;49.244;6.774;2023-05-23T22:41:48;100052.94;;;11.24;nan
10392;BME280;5242;49.244;6.774;2023-05-23T22:49:40;100054.34;;;11.06;nan
10392;BME280;5242;49.244;6.774;2023-05-23T22:57:33;100057.69;;;10.87;nan
10392;BME280;5242;49.244;6.774;2023-05-23T23:05:25;100055.88;;;10.79;nan
10392;BME280;5242;49.244;6.774;2023-05-23T23:13:16;100054.28;;;10.78;nan
10392;BME280;5242;49.244;6.774;2023-05-23T23:21:08;100053.38;;;10.74;nan
10392;BME280;5242;49.244;6.774;2023-05-23T23:29:00;100053.03;;;10.63;nan
10392;BME280;5242;49.244;6.774;2023-05-23T23:36:53;100045.19;;;10.49;nan
10392;BME280;5242;49.244;6.774;2023-05-23T23:44:45;100046.75;;;10.38;nan
10392;BME280;5242;49.244;6.774;2023-05-23T23:52:37;100040.06;;;10.23;nan
